Time;durP1;ratioP1;P1;durP2;ratioP2;P2;SDS_P1;SDS_P2;PMS_P1;PMS_P2;Temp;Humidity;BMP_temperature;BMP_pressure;BME280_temperature;BME280_humidity;BME280_pressure;Samples;Min_cycle;Max_cycle;Signal;HPM_P1;HPM_P2
2022/01/20 00:00:55;;;;;;;;;;;;;;;8.21;36.18;99541.69;4483446;32;33440;-85
2022/01/20 00:03:30;;;;;;;;;;;;;;;7.92;36.75;99537.41;4483209;32;34232;-83
2022/01/20 00:27:54;;;;;;;;;;;;;;;8.25;35.86;99543.50;4467550;32;34384;-86
2022/01/20 00:37:49;;;;;;;;;;;;;;;8.12;35.71;99544.03;4482811;32;37169;-83
2022/01/20 00:40:20;;;;;;;;;;;;;;;8.16;35.75;99553.59;4483062;32;34227;-83
2022/01/20 00:42:48;;;;;;;;;;;;;;;8.05;36.31;99555.88;4482762;32;34688;-82
2022/01/20 00:45:15;;;;;;;;;;;;;;;8.02;36.41;99553.19;4482910;32;34966;-83
2022/01/20 00:47:42;;;;;;;;;;;;;;;8.11;36.22;99552.59;4483008;32;34327;-82
2022/01/20 00:50:11;;;;;;;;;;;;;;;8.15;35.73;99549.28;4482188;32;33902;-83
2022/01/20 00:52:39;;;;;;;;;;;;;;;8.15;35.49;99551.84;4482844;32;34511;-81
2022/01/20 00:55:07;;;;;;;;;;;;;;;8.21;35.44;99552.00;4482797;32;34181;-83
2022/01/20 00:57:34;;;;;;;;;;;;;;;7.92;35.84;99552.91;4482827;32;35094;-83
2022/01/20 01:00:03;;;;;;;;;;;;;;;7.83;36.10;99557.78;4481330;32;33608;-84
2022/01/20 01:02:31;;;;;;;;;;;;;;;7.80;36.20;99549.13;4476573;32;33721;-84
2022/01/20 01:04:58;;;;;;;;;;;;;;;7.88;36.15;99562.25;4481467;32;33722;-82
2022/01/20 01:10:12;;;;;;;;;;;;;;;7.84;36.31;99562.09;4482717;31;34068;-87
2022/01/20 01:15:14;;;;;;;;;;;;;;;7.77;36.29;99561.06;4481162;32;34145;-86
2022/01/20 01:20:29;;;;;;;;;;;;;;;8.00;35.91;99554.00;4482870;32;33888;-82
2022/01/20 01:22:57;;;;;;;;;;;;;;;7.90;35.86;99559.72;4481913;32;33435;-86
2022/01/20 01:25:24;;;;;;;;;;;;;;;7.79;35.88;99559.37;4480923;32;34058;-84
2022/01/20 01:27:51;;;;;;;;;;;;;;;7.83;36.19;99552.63;4480977;32;34403;-83
2022/01/20 01:30:30;;;;;;;;;;;;;;;7.93;36.31;99537.44;4482747;32;34585;-84
2022/01/20 01:32:58;;;;;;;;;;;;;;;7.89;36.59;99545.06;4481830;32;33720;-84
2022/01/20 01:35:27;;;;;;;;;;;;;;;8.03;36.73;99534.31;4482641;32;33827;-84
2022/01/20 01:40:23;;;;;;;;;;;;;;;7.78;37.32;99513.78;4482269;32;34297;-87
2022/01/20 01:42:51;;;;;;;;;;;;;;;8.11;36.87;99511.28;4480877;32;33338;-83
2022/01/20 01:45:19;;;;;;;;;;;;;;;8.09;37.12;99520.69;4482838;32;35063;-82
2022/01/20 01:47:46;;;;;;;;;;;;;;;7.86;38.15;99503.66;4482029;32;34511;-85
2022/01/20 01:50:15;;;;;;;;;;;;;;;7.62;39.01;99490.94;4482138;32;34235;-83
2022/01/20 01:52:42;;;;;;;;;;;;;;;7.49;39.42;99497.41;4482103;32;33751;-82
2022/01/20 01:55:10;;;;;;;;;;;;;;;7.76;39.13;99484.44;4481601;32;34806;-84
2022/01/20 01:57:39;;;;;;;;;;;;;;;7.74;39.54;99480.97;4476155;32;35241;-84
2022/01/20 02:00:07;;;;;;;;;;;;;;;8.02;39.35;99469.69;4481641;32;34066;-81
2022/01/20 02:02:42;;;;;;;;;;;;;;;8.19;39.11;99465.00;4481569;32;33667;-83
2022/01/20 02:05:14;;;;;;;;;;;;;;;8.29;39.13;99462.69;4482188;32;34131;-86
2022/01/20 02:08:23;;;;;;;;;;;;;;;8.50;38.83;99477.06;4481033;32;34410;-85
2022/01/20 02:19:10;;;;;;;;;;;;;;;8.27;40.24;99448.88;4476967;32;34603;-83
2022/01/20 02:21:48;;;;;;;;;;;;;;;7.47;42.50;99437.16;4481908;32;34942;-83
2022/01/20 02:24:15;;;;;;;;;;;;;;;8.05;41.40;99420.72;4482671;32;32837;-81
2022/01/20 02:26:45;;;;;;;;;;;;;;;8.45;40.48;99417.53;4481384;32;33846;-81
2022/01/20 02:29:13;;;;;;;;;;;;;;;8.50;40.37;99417.62;4479998;32;35081;-86
2022/01/20 02:31:41;;;;;;;;;;;;;;;8.39;40.45;99411.31;4480318;32;35336;-86
2022/01/20 02:34:13;;;;;;;;;;;;;;;8.72;39.84;99417.31;4466303;32;34395;-87
2022/01/20 02:36:44;;;;;;;;;;;;;;;8.80;39.52;99408.88;4476553;32;34160;-82
2022/01/20 02:44:56;;;;;;;;;;;;;;;8.07;40.50;99402.69;4483678;32;33699;-83
2022/01/20 02:47:24;;;;;;;;;;;;;;;8.24;40.37;99402.28;4483676;32;34243;-86
2022/01/20 02:49:52;;;;;;;;;;;;;;;8.47;39.73;99397.75;4482114;32;34850;-83
2022/01/20 02:52:19;;;;;;;;;;;;;;;8.41;40.09;99397.63;4483205;32;34250;-86
2022/01/20 02:54:47;;;;;;;;;;;;;;;8.51;39.92;99393.53;4481920;32;32873;-84
2022/01/20 02:57:14;;;;;;;;;;;;;;;7.72;41.44;99400.91;4483580;32;34575;-86
2022/01/20 02:59:42;;;;;;;;;;;;;;;8.19;40.04;99390.13;4483558;32;34908;-85
2022/01/20 03:02:10;;;;;;;;;;;;;;;7.95;40.55;99387.75;4483508;32;34406;-82
2022/01/20 03:04:37;;;;;;;;;;;;;;;7.78;40.44;99383.00;4484021;32;33784;-83
2022/01/20 03:07:10;;;;;;;;;;;;;;;8.18;39.66;99380.59;4483390;32;34159;-86
2022/01/20 03:09:38;;;;;;;;;;;;;;;7.78;40.03;99379.56;4484076;32;35211;-83
2022/01/20 03:12:06;;;;;;;;;;;;;;;7.68;40.12;99381.00;4483731;32;34219;-84
2022/01/20 03:14:33;;;;;;;;;;;;;;;7.84;39.58;99368.50;4482784;32;33326;-83
2022/01/20 03:17:01;;;;;;;;;;;;;;;7.58;39.91;99355.81;4481992;32;33559;-83
2022/01/20 03:19:28;;;;;;;;;;;;;;;7.79;39.32;99361.53;4483376;32;35239;-83
2022/01/20 03:21:55;;;;;;;;;;;;;;;8.02;38.83;99366.41;4483535;32;34529;-83
2022/01/20 03:24:23;;;;;;;;;;;;;;;7.96;38.59;99356.81;4483983;32;32910;-82
2022/01/20 03:26:50;;;;;;;;;;;;;;;7.98;38.47;99352.56;4482716;32;34202;-85
2022/01/20 03:29:17;;;;;;;;;;;;;;;8.07;38.14;99346.78;4483473;32;34086;-86
2022/01/20 03:31:45;;;;;;;;;;;;;;;7.70;38.72;99343.22;4482036;32;34274;-82
2022/01/20 03:34:13;;;;;;;;;;;;;;;7.95;38.12;99338.69;4480796;32;33174;-83
2022/01/20 03:36:41;;;;;;;;;;;;;;;7.54;38.77;99331.63;4482179;32;34228;-83
2022/01/20 03:39:08;;;;;;;;;;;;;;;7.80;38.28;99337.47;4482713;32;34401;-83
2022/01/20 03:41:36;;;;;;;;;;;;;;;7.85;38.22;99335.00;4482065;32;34111;-86
2022/01/20 03:44:04;;;;;;;;;;;;;;;7.69;38.46;99328.59;4480260;32;34389;-83
2022/01/20 03:46:32;;;;;;;;;;;;;;;7.73;38.21;99314.06;4483220;32;34085;-82
2022/01/20 03:49:21;;;;;;;;;;;;;;;8.21;37.11;99324.72;4481642;32;35376;-83
2022/01/20 03:51:48;;;;;;;;;;;;;;;7.95;37.43;99318.91;4469151;32;34556;-83
2022/01/20 03:54:16;;;;;;;;;;;;;;;7.49;37.87;99320.28;4483886;32;33752;-82
2022/01/20 03:56:43;;;;;;;;;;;;;;;7.12;38.91;99313.22;4483191;32;34124;-83
2022/01/20 03:59:11;;;;;;;;;;;;;;;7.21;38.58;99326.38;4483449;32;35172;-84
2022/01/20 04:01:38;;;;;;;;;;;;;;;5.90;41.33;99324.81;4483514;32;34278;-84
2022/01/20 04:04:06;;;;;;;;;;;;;;;6.65;40.40;99315.25;4482987;32;33592;-84
2022/01/20 04:06:34;;;;;;;;;;;;;;;6.59;40.56;99325.38;4483028;32;34392;-83
2022/01/20 04:09:02;;;;;;;;;;;;;;;7.12;39.29;99310.62;4483672;32;35158;-85
2022/01/20 04:11:30;;;;;;;;;;;;;;;7.35;38.76;99318.16;4481542;32;34336;-83
2022/01/20 04:13:57;;;;;;;;;;;;;;;7.15;38.66;99315.87;4483258;32;33332;-83
2022/01/20 04:16:37;;;;;;;;;;;;;;;7.31;38.49;99310.34;4483337;32;34877;-82
2022/01/20 04:19:07;;;;;;;;;;;;;;;7.45;38.34;99309.84;4482067;32;35209;-83
2022/01/20 04:21:35;;;;;;;;;;;;;;;7.12;38.52;99308.06;4481817;32;34547;-83
2022/01/20 04:24:03;;;;;;;;;;;;;;;7.45;37.89;99313.28;4482405;32;33446;-85
2022/01/20 04:26:31;;;;;;;;;;;;;;;7.53;37.60;99313.50;4481829;32;33943;-81
2022/01/20 04:28:58;;;;;;;;;;;;;;;7.60;37.44;99320.56;4481442;32;34386;-82
2022/01/20 04:31:26;;;;;;;;;;;;;;;7.53;37.46;99310.91;4483438;32;33915;-83
2022/01/20 04:33:56;;;;;;;;;;;;;;;6.85;38.60;99313.28;4483171;32;33687;-86
2022/01/20 04:36:24;;;;;;;;;;;;;;;6.90;38.53;99311.72;4482427;32;34989;-84
2022/01/20 04:38:52;;;;;;;;;;;;;;;7.12;38.21;99307.19;4483261;32;34429;-86
2022/01/20 04:41:21;;;;;;;;;;;;;;;7.11;38.18;99321.78;4483128;32;34407;-82
2022/01/20 04:43:48;;;;;;;;;;;;;;;7.05;38.11;99321.63;4483225;32;34259;-83
2022/01/20 04:57:20;;;;;;;;;;;;;;;6.97;38.51;99334.28;4482083;32;34073;-84
2022/01/20 04:59:48;;;;;;;;;;;;;;;6.83;38.50;99338.16;4481772;32;34299;-83
2022/01/20 05:02:17;;;;;;;;;;;;;;;6.67;38.67;99335.94;4481766;32;34548;-83
2022/01/20 05:04:45;;;;;;;;;;;;;;;6.84;38.34;99321.84;4483074;32;33515;-83
2022/01/20 05:07:21;;;;;;;;;;;;;;;7.14;37.97;99318.44;4476358;32;186761;-82
2022/01/20 05:09:50;;;;;;;;;;;;;;;7.06;38.13;99323.37;4479978;32;34009;-84
2022/01/20 05:12:25;;;;;;;;;;;;;;;7.25;37.72;99320.47;4482304;32;34287;-83
2022/01/20 05:14:52;;;;;;;;;;;;;;;7.29;37.76;99311.12;4482756;32;33721;-83
2022/01/20 05:17:20;;;;;;;;;;;;;;;7.26;37.74;99317.06;4481684;32;34001;-86
2022/01/20 05:19:48;;;;;;;;;;;;;;;6.71;39.06;99310.31;4467558;32;34154;-87
2022/01/20 05:22:16;;;;;;;;;;;;;;;6.98;38.62;99314.53;4467462;32;34694;-83
2022/01/20 05:24:44;;;;;;;;;;;;;;;7.12;38.29;99307.19;4480305;32;34265;-85
2022/01/20 05:27:11;;;;;;;;;;;;;;;7.22;37.92;99320.38;4479886;32;34096;-83
2022/01/20 05:29:39;;;;;;;;;;;;;;;7.20;37.79;99326.34;4481003;32;34422;-82
2022/01/20 05:32:07;;;;;;;;;;;;;;;7.16;38.07;99325.38;4479085;32;34586;-82
2022/01/20 05:34:35;;;;;;;;;;;;;;;7.34;37.52;99309.53;4476731;32;33893;-80
2022/01/20 05:37:03;;;;;;;;;;;;;;;7.44;37.42;99308.97;4479769;32;34763;-80
2022/01/20 05:39:31;;;;;;;;;;;;;;;7.24;37.61;99313.59;4481293;32;34335;-81
2022/01/20 05:41:58;;;;;;;;;;;;;;;7.55;37.04;99314.44;4480867;32;34550;-82
2022/01/20 05:44:27;;;;;;;;;;;;;;;7.53;36.85;99310.91;4482207;32;33020;-81
2022/01/20 05:46:55;;;;;;;;;;;;;;;7.52;36.72;99310.06;4482253;32;33993;-82
2022/01/20 05:49:24;;;;;;;;;;;;;;;7.36;37.17;99318.22;4482509;32;34793;-82
2022/01/20 05:51:52;;;;;;;;;;;;;;;7.46;37.03;99309.00;4482882;32;34898;-82
2022/01/20 05:54:20;;;;;;;;;;;;;;;7.43;37.06;99301.19;4480262;32;33634;-82
2022/01/20 05:56:48;;;;;;;;;;;;;;;7.19;37.52;99304.81;4481585;32;34338;-82
2022/01/20 05:59:15;;;;;;;;;;;;;;;7.22;37.69;99304.91;4481706;32;34415;-82
2022/01/20 06:01:46;;;;;;;;;;;;;;;6.28;39.88;99316.69;4481224;32;34487;-83
2022/01/20 06:04:14;;;;;;;;;;;;;;;6.69;38.96;99317.09;4480583;32;33767;-82
2022/01/20 06:06:42;;;;;;;;;;;;;;;6.75;38.89;99327.59;4482566;32;34239;-82
2022/01/20 06:09:09;;;;;;;;;;;;;;;7.13;38.29;99327.00;4483271;32;34153;-83
2022/01/20 06:11:37;;;;;;;;;;;;;;;7.01;38.53;99319.78;4484281;32;34577;-82
2022/01/20 06:14:04;;;;;;;;;;;;;;;6.74;39.01;99320.72;4482314;32;33299;-82
2022/01/20 06:16:31;;;;;;;;;;;;;;;6.80;39.33;99322.59;4482811;32;34725;-82
2022/01/20 06:19:04;;;;;;;;;;;;;;;6.96;39.18;99318.75;4483242;32;34340;-83
2022/01/20 06:21:32;;;;;;;;;;;;;;;7.17;38.81;99311.66;4484019;32;35011;-83
2022/01/20 06:23:59;;;;;;;;;;;;;;;7.01;39.42;99312.06;4483195;32;34471;-83
2022/01/20 06:26:27;;;;;;;;;;;;;;;6.99;40.12;99308.53;4484042;32;33869;-82
2022/01/20 06:28:54;;;;;;;;;;;;;;;7.04;40.88;99299.22;4484242;32;33996;-82
2022/01/20 06:31:22;;;;;;;;;;;;;;;6.99;40.94;99304.25;4483929;32;34822;-82
2022/01/20 06:33:49;;;;;;;;;;;;;;;7.00;40.51;99312.88;4484704;32;33730;-82
2022/01/20 06:36:18;;;;;;;;;;;;;;;7.08;40.51;99306.22;4484104;32;35075;-84
2022/01/20 06:38:46;;;;;;;;;;;;;;;7.44;40.12;99314.13;4484252;32;35120;-82
2022/01/20 06:41:13;;;;;;;;;;;;;;;7.05;41.00;99321.63;4483772;32;34495;-82
2022/01/20 06:43:40;;;;;;;;;;;;;;;7.35;40.55;99313.88;4484215;32;33641;-83
2022/01/20 06:46:08;;;;;;;;;;;;;;;7.60;40.00;99323.16;4484100;32;34931;-82
2022/01/20 06:48:38;;;;;;;;;;;;;;;6.86;41.33;99315.06;4484233;32;34137;-81
2022/01/20 06:51:07;;;;;;;;;;;;;;;7.63;40.88;99306.91;4483273;32;35195;-83
2022/01/20 06:53:34;;;;;;;;;;;;;;;7.37;41.28;99301.91;4484068;32;34454;-82
2022/01/20 06:56:02;;;;;;;;;;;;;;;7.29;41.52;99299.09;4484054;32;34238;-82
2022/01/20 06:58:29;;;;;;;;;;;;;;;7.30;41.95;99290.53;4482724;32;34254;-81
2022/01/20 07:00:56;;;;;;;;;;;;;;;7.10;42.85;99299.41;4483998;32;34544;-82
2022/01/20 07:03:26;;;;;;;;;;;;;;;7.56;41.70;99290.38;4484070;32;33706;-82
2022/01/20 07:05:54;;;;;;;;;;;;;;;7.40;42.56;99288.22;4483352;32;34125;-80
2022/01/20 07:08:21;;;;;;;;;;;;;;;7.19;43.06;99278.16;4482873;32;34931;-81
2022/01/20 07:10:49;;;;;;;;;;;;;;;7.17;43.46;99279.84;4484147;32;34741;-86
2022/01/20 07:13:16;;;;;;;;;;;;;;;7.50;42.69;99292.78;4483389;32;32999;-82
2022/01/20 07:15:43;;;;;;;;;;;;;;;7.51;42.85;99286.81;4484082;32;34203;-81
2022/01/20 07:18:10;;;;;;;;;;;;;;;7.86;41.97;99274.81;4481977;32;34247;-81
2022/01/20 07:20:38;;;;;;;;;;;;;;;8.29;41.29;99274.12;4482659;32;34496;-81
2022/01/20 07:23:06;;;;;;;;;;;;;;;8.08;42.03;99275.34;4483390;32;33090;-82
2022/01/20 07:25:33;;;;;;;;;;;;;;;7.77;42.83;99280.62;4482378;32;34739;-81
2022/01/20 07:28:00;;;;;;;;;;;;;;;8.26;41.94;99266.34;4482169;32;32825;-81
2022/01/20 07:30:32;;;;;;;;;;;;;;;8.51;41.61;99259.16;4482664;32;34720;-82
2022/01/20 07:33:05;;;;;;;;;;;;;;;8.33;41.97;99251.81;4483930;32;34267;-82
2022/01/20 07:35:35;;;;;;;;;;;;;;;8.32;41.91;99244.91;4484109;32;34928;-81
2022/01/20 07:38:02;;;;;;;;;;;;;;;8.02;42.58;99251.09;4481696;32;34336;-82
2022/01/20 07:40:32;;;;;;;;;;;;;;;7.57;44.29;99262.00;4482449;32;34619;-82
2022/01/20 07:42:59;;;;;;;;;;;;;;;8.02;43.36;99257.97;4483784;32;34514;-82
2022/01/20 07:45:27;;;;;;;;;;;;;;;7.78;44.10;99256.56;4482484;32;34297;-82
2022/01/20 07:47:55;;;;;;;;;;;;;;;7.97;43.79;99251.84;4483002;32;35340;-81
2022/01/20 07:50:22;;;;;;;;;;;;;;;8.09;43.81;99236.66;4483495;32;33954;-81
2022/01/20 07:52:50;;;;;;;;;;;;;;;7.02;46.40;99250.22;4483720;32;34039;-82
2022/01/20 07:55:17;;;;;;;;;;;;;;;7.64;45.08;99249.28;4483196;32;33333;-82
2022/01/20 07:57:44;;;;;;;;;;;;;;;7.31;45.75;99244.97;4483734;32;34501;-82
2022/01/20 08:00:12;;;;;;;;;;;;;;;7.86;44.93;99242.97;4483316;32;35264;-83
2022/01/20 08:02:42;;;;;;;;;;;;;;;7.66;45.20;99240.75;4482224;32;33238;-82
2022/01/20 08:05:11;;;;;;;;;;;;;;;7.60;45.89;99266.41;4483559;32;34256;-83
2022/01/20 08:07:39;;;;;;;;;;;;;;;7.89;43.96;99264.56;4483622;32;34375;-83
2022/01/20 08:10:07;;;;;;;;;;;;;;;8.03;43.20;99260.63;4483272;32;35227;-84
2022/01/20 08:12:37;;;;;;;;;;;;;;;6.73;46.05;99261.41;4482510;32;33350;-83
2022/01/20 08:15:09;;;;;;;;;;;;;;;7.71;44.94;99264.97;4483637;32;34296;-83
2022/01/20 08:17:37;;;;;;;;;;;;;;;7.83;43.99;99263.53;4482325;32;34521;-83
2022/01/20 08:20:05;;;;;;;;;;;;;;;7.94;44.74;99262.97;4483390;32;34669;-83
2022/01/20 08:22:34;;;;;;;;;;;;;;;7.93;44.82;99258.66;4482990;32;34483;-83
2022/01/20 08:25:05;;;;;;;;;;;;;;;7.56;46.25;99259.41;4482010;32;34129;-83
2022/01/20 08:27:32;;;;;;;;;;;;;;;7.72;45.56;99258.97;4483407;31;34629;-83
2022/01/20 08:29:59;;;;;;;;;;;;;;;8.40;44.33;99260.63;4483577;32;33968;-83
2022/01/20 08:32:27;;;;;;;;;;;;;;;7.83;45.38;99266.12;4482868;32;33380;-83
2022/01/20 08:34:55;;;;;;;;;;;;;;;8.28;44.58;99256.91;4483738;32;34030;-83
2022/01/20 08:37:25;;;;;;;;;;;;;;;8.30;44.41;99264.69;4483412;32;34487;-83
2022/01/20 08:39:53;;;;;;;;;;;;;;;9.24;42.69;99260.72;4483441;32;35081;-84
2022/01/20 08:42:20;;;;;;;;;;;;;;;7.84;45.58;99267.84;4483479;32;34049;-82
2022/01/20 08:44:47;;;;;;;;;;;;;;;9.14;42.84;99261.37;4483436;32;33786;-84
2022/01/20 08:47:20;;;;;;;;;;;;;;;8.82;43.50;99246.91;4482301;32;34476;-87
2022/01/20 08:49:48;;;;;;;;;;;;;;;8.70;44.73;99252.69;4483596;32;33986;-86
2022/01/20 08:52:16;;;;;;;;;;;;;;;8.61;43.90;99237.88;4482228;32;33809;-86
2022/01/20 08:54:45;;;;;;;;;;;;;;;8.38;44.72;99234.78;4482054;32;34859;-86
2022/01/20 08:57:14;;;;;;;;;;;;;;;8.45;44.44;99238.37;4482066;32;33965;-85
2022/01/20 08:59:42;;;;;;;;;;;;;;;9.38;42.41;99240.25;4483283;32;34663;-85
2022/01/20 09:02:10;;;;;;;;;;;;;;;8.84;43.60;99238.34;4483194;32;34573;-84
2022/01/20 09:04:38;;;;;;;;;;;;;;;9.21;42.86;99239.97;4482089;32;34900;-84
2022/01/20 09:07:08;;;;;;;;;;;;;;;9.55;42.09;99248.34;4483164;32;35332;-84
2022/01/20 09:09:41;;;;;;;;;;;;;;;9.54;41.85;99238.81;4483102;32;34181;-84
2022/01/20 09:12:18;;;;;;;;;;;;;;;9.43;41.81;99243.84;4483139;32;34202;-84
2022/01/20 09:17:32;;;;;;;;;;;;;;;9.25;42.28;99261.59;4483222;32;35075;-85
2022/01/20 09:20:00;;;;;;;;;;;;;;;10.24;40.74;99260.72;4483231;32;34624;-87
2022/01/20 09:22:30;;;;;;;;;;;;;;;9.14;43.01;99271.72;4482841;32;33854;-84
2022/01/20 09:24:58;;;;;;;;;;;;;;;7.92;45.34;99279.28;4483205;32;33921;-84
2022/01/20 09:27:25;;;;;;;;;;;;;;;9.62;41.93;99265.75;4483391;32;33690;-84
2022/01/20 09:29:53;;;;;;;;;;;;;;;9.18;42.54;99255.41;4483218;32;34271;-84
2022/01/20 09:32:21;;;;;;;;;;;;;;;9.25;42.54;99259.88;4483146;32;33532;-84
2022/01/20 09:34:48;;;;;;;;;;;;;;;8.90;43.83;99263.44;4482865;32;34849;-84
2022/01/20 09:37:16;;;;;;;;;;;;;;;9.68;41.84;99265.84;4482892;32;34187;-84
2022/01/20 09:39:45;;;;;;;;;;;;;;;9.19;42.69;99264.03;4483133;32;34011;-84
2022/01/20 09:42:14;;;;;;;;;;;;;;;8.26;45.46;99262.88;4481735;32;33303;-85
2022/01/20 09:44:44;;;;;;;;;;;;;;;8.75;44.28;99269.16;4481698;32;35236;-87
2022/01/20 09:47:17;;;;;;;;;;;;;;;7.89;46.64;99272.31;4482977;32;35381;-84
2022/01/20 09:49:45;;;;;;;;;;;;;;;9.65;42.65;99268.38;4483123;32;35279;-86
2022/01/20 09:52:16;;;;;;;;;;;;;;;9.34;43.89;99258.31;4481730;32;33165;-85
2022/01/20 09:54:45;;;;;;;;;;;;;;;6.89;49.16;99263.56;4482891;32;33730;-84
2022/01/20 09:57:13;;;;;;;;;;;;;;;8.20;46.69;99255.84;4482490;32;34477;-85
2022/01/20 09:59:41;;;;;;;;;;;;;;;8.54;45.99;99261.81;4482750;32;34825;-84
2022/01/20 10:02:09;;;;;;;;;;;;;;;8.54;45.94;99254.06;4481147;32;33044;-85
2022/01/20 10:04:36;;;;;;;;;;;;;;;9.29;44.51;99241.81;4481246;32;34312;-84
2022/01/20 10:07:09;;;;;;;;;;;;;;;8.73;45.95;99251.03;4482612;32;34377;-85
2022/01/20 10:09:42;;;;;;;;;;;;;;;8.80;45.67;99248.59;4481098;32;34162;-79
2022/01/20 10:12:10;;;;;;;;;;;;;;;8.05;47.31;99260.66;4481034;32;33185;-84
2022/01/20 10:14:49;;;;;;;;;;;;;;;8.61;46.65;99262.84;4481221;32;34056;-84
2022/01/20 10:17:19;;;;;;;;;;;;;;;7.99;48.78;99265.66;4482077;32;34433;-84
2022/01/20 10:19:56;;;;;;;;;;;;;;;8.92;47.86;99254.03;4481171;32;34417;-87
2022/01/20 10:22:24;;;;;;;;;;;;;;;6.43;54.63;99261.34;4482286;32;33396;-84
2022/01/20 10:25:19;;;;;;;;;;;;;;;6.53;55.03;99255.66;4482287;32;33783;-85
2022/01/20 10:27:51;;;;;;;;;;;;;;;7.20;53.71;99247.28;4479662;31;35042;-84
2022/01/20 10:30:19;;;;;;;;;;;;;;;7.51;53.85;99236.06;4482034;32;34850;-84
2022/01/20 10:32:50;;;;;;;;;;;;;;;6.63;56.71;99224.19;4481944;32;34501;-87
2022/01/20 10:35:24;;;;;;;;;;;;;;;7.57;54.90;99228.47;4481945;32;35011;-84
2022/01/20 10:38:15;;;;;;;;;;;;;;;7.74;54.43;99228.06;4482224;32;35179;-84
2022/01/20 10:40:50;;;;;;;;;;;;;;;7.13;57.00;99232.47;4482181;32;35093;-86
2022/01/20 10:43:28;;;;;;;;;;;;;;;6.20;60.40;99233.19;4482031;32;33676;-87
2022/01/20 10:46:05;;;;;;;;;;;;;;;7.14;57.63;99223.03;4481710;32;34573;-85
2022/01/20 10:48:33;;;;;;;;;;;;;;;7.46;56.84;99229.03;4480825;32;34372;-87
2022/01/20 10:51:00;;;;;;;;;;;;;;;7.65;56.43;99213.22;4481690;32;35094;-87
2022/01/20 10:53:28;;;;;;;;;;;;;;;6.97;58.03;99210.56;4480480;32;33540;-86
2022/01/20 10:56:05;;;;;;;;;;;;;;;7.36;56.74;99201.28;4483777;32;34678;-80
2022/01/20 10:58:33;;;;;;;;;;;;;;;6.31;60.59;99198.34;4483086;32;33464;-85
2022/01/20 11:01:03;;;;;;;;;;;;;;;6.29;61.33;99204.28;4483067;32;34188;-84
2022/01/20 11:03:33;;;;;;;;;;;;;;;6.09;62.15;99203.66;4484382;32;33659;-84
2022/01/20 11:06:00;;;;;;;;;;;;;;;7.12;59.53;99189.47;4484266;32;35042;-84
2022/01/20 11:08:29;;;;;;;;;;;;;;;6.06;62.26;99182.97;4482970;32;34271;-78
2022/01/20 11:10:58;;;;;;;;;;;;;;;7.00;59.11;99183.97;4483915;32;34340;-84
2022/01/20 11:13:26;;;;;;;;;;;;;;;6.51;60.80;99169.72;4484191;32;33206;-84
2022/01/20 11:15:53;;;;;;;;;;;;;;;6.69;59.90;99171.97;4483147;32;33695;-87
2022/01/20 11:18:25;;;;;;;;;;;;;;;6.61;60.10;99178.59;4483689;32;34501;-87
2022/01/20 11:20:54;;;;;;;;;;;;;;;7.93;56.50;99170.00;4482723;32;34506;-85
2022/01/20 11:23:22;;;;;;;;;;;;;;;7.20;57.83;99176.81;4482781;32;33694;-86
2022/01/20 11:25:49;;;;;;;;;;;;;;;6.71;58.86;99176.34;4482715;32;33768;-83
2022/01/20 11:28:21;;;;;;;;;;;;;;;7.61;55.81;99180.41;4484004;32;34086;-86
2022/01/20 11:30:53;;;;;;;;;;;;;;;7.14;57.36;99172.34;4482632;32;34019;-85
2022/01/20 11:33:26;;;;;;;;;;;;;;;6.27;59.67;99147.59;4482407;32;33310;-84
2022/01/20 11:35:59;;;;;;;;;;;;;;;7.30;56.99;99138.38;4482785;32;33387;-85
2022/01/20 11:38:41;;;;;;;;;;;;;;;7.26;56.71;99121.09;4483690;32;34913;-84
2022/01/20 11:41:08;;;;;;;;;;;;;;;6.93;57.98;99120.22;4482531;32;34044;-85
2022/01/20 11:43:43;;;;;;;;;;;;;;;7.51;55.71;99111.38;4483594;32;33734;-85
2022/01/20 11:46:15;;;;;;;;;;;;;;;8.10;54.52;99111.84;4483785;32;33981;-86
2022/01/20 11:48:49;;;;;;;;;;;;;;;7.38;55.78;99096.44;4482488;32;34526;-85
2022/01/20 11:51:19;;;;;;;;;;;;;;;8.42;53.22;99102.25;4484253;32;34424;-86
2022/01/20 11:54:13;;;;;;;;;;;;;;;8.37;52.99;99100.38;4483743;32;33773;-86
2022/01/20 11:56:41;;;;;;;;;;;;;;;7.60;54.90;99090.94;4481614;32;34032;-85
2022/01/20 11:59:09;;;;;;;;;;;;;;;8.30;53.00;99096.81;4482545;32;35173;-87
2022/01/20 12:01:51;;;;;;;;;;;;;;;8.20;53.36;99094.87;4482084;32;33728;-84
2022/01/20 12:04:31;;;;;;;;;;;;;;;8.46;52.76;99095.44;4482334;32;34086;-87
2022/01/20 12:06:58;;;;;;;;;;;;;;;8.84;51.51;99079.78;4482332;32;34495;-84
2022/01/20 12:09:34;;;;;;;;;;;;;;;8.92;50.60;99068.72;4469409;32;32899;-86
2022/01/20 12:12:02;;;;;;;;;;;;;;;8.90;50.44;99069.53;4482151;32;33699;-86
2022/01/20 12:14:34;;;;;;;;;;;;;;;8.42;51.60;99065.22;4482316;32;33626;-85
2022/01/20 12:17:14;;;;;;;;;;;;;;;8.87;50.56;99066.94;4483606;32;33828;-84
2022/01/20 12:19:44;;;;;;;;;;;;;;;7.48;54.45;99067.47;4483528;32;34541;-84
2022/01/20 12:22:13;;;;;;;;;;;;;;;8.01;52.56;99063.50;4482332;32;35328;-84
2022/01/20 12:24:48;;;;;;;;;;;;;;;8.98;49.35;99052.47;4482069;32;33677;-86
2022/01/20 12:27:16;;;;;;;;;;;;;;;7.25;53.88;99066.91;4482085;32;34523;-84
2022/01/20 12:29:43;;;;;;;;;;;;;;;7.78;52.54;99057.84;4483521;32;34462;-85
2022/01/20 12:32:15;;;;;;;;;;;;;;;8.18;51.50;99040.63;4483143;32;34454;-84
2022/01/20 12:34:42;;;;;;;;;;;;;;;8.40;50.56;99031.59;4482290;32;34313;-86
2022/01/20 12:37:10;;;;;;;;;;;;;;;8.16;50.23;99031.09;4483566;32;34271;-87
2022/01/20 12:39:38;;;;;;;;;;;;;;;7.88;50.75;99027.94;4483537;32;34084;-84
2022/01/20 12:42:06;;;;;;;;;;;;;;;7.47;51.86;99032.19;4483478;32;34906;-85
2022/01/20 12:44:39;;;;;;;;;;;;;;;7.76;50.46;99033.69;4469884;32;34317;-83
2022/01/20 12:47:07;;;;;;;;;;;;;;;7.81;50.79;99033.81;4483259;32;34328;-83
2022/01/20 12:49:34;;;;;;;;;;;;;;;8.37;49.38;99023.81;4482245;32;34183;-87
2022/01/20 12:52:07;;;;;;;;;;;;;;;7.80;51.08;99017.47;4483126;32;35089;-84
2022/01/20 12:54:35;;;;;;;;;;;;;;;8.10;50.33;99020.63;4482225;32;34082;-84
2022/01/20 12:57:06;;;;;;;;;;;;;;;7.82;51.04;99008.88;4482313;32;34914;-87
2022/01/20 12:59:37;;;;;;;;;;;;;;;7.68;51.12;99017.16;4481911;32;35347;-84
2022/01/20 13:02:19;;;;;;;;;;;;;;;7.37;51.74;99004.44;4483181;32;35271;-86
2022/01/20 13:04:47;;;;;;;;;;;;;;;7.56;51.29;99016.91;4483093;32;33788;-84
2022/01/20 13:07:17;;;;;;;;;;;;;;;7.93;50.10;99004.81;4483020;32;34246;-85
2022/01/20 13:09:53;;;;;;;;;;;;;;;7.50;51.12;99001.28;4483180;32;34437;-87
2022/01/20 13:12:31;;;;;;;;;;;;;;;6.33;53.91;99001.03;4483241;32;35253;-83
2022/01/20 13:14:58;;;;;;;;;;;;;;;7.37;51.67;98988.97;4481660;32;33245;-84
2022/01/20 13:17:26;;;;;;;;;;;;;;;8.84;47.82;99002.25;4482631;32;33600;-84
2022/01/20 13:19:55;;;;;;;;;;;;;;;7.86;49.83;98993.47;4483015;32;34436;-86
2022/01/20 13:25:15;;;;;;;;;;;;;;;8.09;48.37;98991.34;4469970;32;33405;-84
2022/01/20 13:27:58;;;;;;;;;;;;;;;8.73;47.30;98964.16;4460047;32;33938;-84
2022/01/20 13:30:29;;;;;;;;;;;;;;;7.78;48.35;98967.50;4466701;32;33953;-84
2022/01/20 13:32:57;;;;;;;;;;;;;;;7.44;49.74;98957.31;4466968;32;34611;-84
2022/01/20 13:35:24;;;;;;;;;;;;;;;7.36;49.50;98958.88;4466931;32;34358;-86
2022/01/20 13:38:03;;;;;;;;;;;;;;;8.30;47.28;98957.34;4467071;32;34855;-81
2022/01/20 13:40:30;;;;;;;;;;;;;;;7.67;48.11;98968.12;4465729;32;34470;-84
2022/01/20 13:45:42;;;;;;;;;;;;;;;8.67;46.66;98979.53;4465678;32;33543;-84
2022/01/20 13:48:12;;;;;;;;;;;;;;;8.39;46.90;98967.84;4453035;32;32553;-86
2022/01/20 13:50:40;;;;;;;;;;;;;;;9.04;44.96;98961.19;4466795;32;35218;-86
2022/01/20 13:53:11;;;;;;;;;;;;;;;8.15;46.80;98976.00;4466737;32;34185;-83
2022/01/20 13:55:39;;;;;;;;;;;;;;;8.66;45.96;98962.28;4466782;32;33231;-85
2022/01/20 13:58:06;;;;;;;;;;;;;;;9.22;44.54;98951.13;4466774;32;33820;-84
2022/01/20 14:00:35;;;;;;;;;;;;;;;8.20;46.83;98951.13;4466634;32;34040;-85
2022/01/20 14:03:05;;;;;;;;;;;;;;;8.21;46.85;98942.53;4466305;32;33964;-84
2022/01/20 14:05:33;;;;;;;;;;;;;;;9.06;45.10;98936.25;4465726;32;33709;-85
2022/01/20 14:08:01;;;;;;;;;;;;;;;8.71;45.56;98936.53;4466424;32;35073;-84
2022/01/20 14:10:29;;;;;;;;;;;;;;;7.91;47.21;98952.25;4466681;32;34249;-87
2022/01/20 14:12:56;;;;;;;;;;;;;;;8.74;45.64;98958.13;4464885;32;34454;-87
2022/01/20 14:15:27;;;;;;;;;;;;;;;8.70;45.97;98964.09;4466384;32;34428;-84
2022/01/20 14:17:55;;;;;;;;;;;;;;;9.10;45.08;98944.06;4466718;32;34745;-85
2022/01/20 14:20:23;;;;;;;;;;;;;;;9.02;44.90;98945.66;4466571;32;35247;-84
2022/01/20 14:22:51;;;;;;;;;;;;;;;9.09;44.38;98941.44;4466410;32;34663;-85